sensor_id;sensor_type;location;lat;lon;timestamp;temperature;humidity
62575;DHT22;53112;45.602;11.904;2022-08-18T00:00:10;26.40;70.00
62575;DHT22;53112;45.602;11.904;2022-08-18T00:02:41;26.40;70.20
62575;DHT22;53112;45.602;11.904;2022-08-18T00:05:09;26.40;69.80
62575;DHT22;53112;45.602;11.904;2022-08-18T00:07:38;26.50;69.60
62575;DHT22;53112;45.602;11.904;2022-08-18T00:10:05;26.50;69.60
62575;DHT22;53112;45.602;11.904;2022-08-18T00:12:37;26.40;70.00
62575;DHT22;53112;45.602;11.904;2022-08-18T00:15:09;26.40;69.80
62575;DHT22;53112;45.602;11.904;2022-08-18T00:17:36;26.20;70.80
62575;DHT22;53112;45.602;11.904;2022-08-18T00:20:08;26.20;70.10
62575;DHT22;53112;45.602;11.904;2022-08-18T00:22:35;26.20;70.10
62575;DHT22;53112;45.602;11.904;2022-08-18T00:25:02;26.20;70.30
62575;DHT22;53112;45.602;11.904;2022-08-18T00:27:29;26.30;69.90
62575;DHT22;53112;45.602;11.904;2022-08-18T00:30:05;26.30;69.30
62575;DHT22;53112;45.602;11.904;2022-08-18T00:32:35;26.40;69.50
62575;DHT22;53112;45.602;11.904;2022-08-18T00:35:10;26.40;69.30
62575;DHT22;53112;45.602;11.904;2022-08-18T00:37:39;26.40;69.20
62575;DHT22;53112;45.602;11.904;2022-08-18T00:40:07;26.40;69.00
62575;DHT22;53112;45.602;11.904;2022-08-18T00:42:44;26.40;69.00
62575;DHT22;53112;45.602;11.904;2022-08-18T00:45:14;26.30;69.70
62575;DHT22;53112;45.602;11.904;2022-08-18T00:47:41;26.20;69.70
62575;DHT22;53112;45.602;11.904;2022-08-18T00:50:31;26.20;69.60
62575;DHT22;53112;45.602;11.904;2022-08-18T00:53:04;26.20;69.70
62575;DHT22;53112;45.602;11.904;2022-08-18T00:55:32;26.30;69.40
62575;DHT22;53112;45.602;11.904;2022-08-18T00:58:05;26.30;69.20
62575;DHT22;53112;45.602;11.904;2022-08-18T01:00:32;26.10;70.80
62575;DHT22;53112;45.602;11.904;2022-08-18T01:03:03;25.80;71.50
62575;DHT22;53112;45.602;11.904;2022-08-18T01:05:47;25.80;72.00
62575;DHT22;53112;45.602;11.904;2022-08-18T01:08:16;25.80;71.80
62575;DHT22;53112;45.602;11.904;2022-08-18T01:10:43;26.00;70.50
62575;DHT22;53112;45.602;11.904;2022-08-18T01:13:10;26.00;70.60
62575;DHT22;53112;45.602;11.904;2022-08-18T01:15:36;26.00;71.10
62575;DHT22;53112;45.602;11.904;2022-08-18T01:18:06;26.00;71.10
62575;DHT22;53112;45.602;11.904;2022-08-18T01:21:09;26.00;71.40
62575;DHT22;53112;45.602;11.904;2022-08-18T01:23:56;25.90;72.20
62575;DHT22;53112;45.602;11.904;2022-08-18T01:26:25;26.00;72.10
62575;DHT22;53112;45.602;11.904;2022-08-18T01:28:51;25.90;72.70
62575;DHT22;53112;45.602;11.904;2022-08-18T01:31:34;25.90;72.30
62575;DHT22;53112;45.602;11.904;2022-08-18T01:34:06;26.10;73.40
62575;DHT22;53112;45.602;11.904;2022-08-18T01:36:33;26.10;71.50
62575;DHT22;53112;45.602;11.904;2022-08-18T01:39:05;26.10;71.20
62575;DHT22;53112;45.602;11.904;2022-08-18T01:41:31;26.10;71.60
62575;DHT22;53112;45.602;11.904;2022-08-18T01:43:59;26.20;71.30
62575;DHT22;53112;45.602;11.904;2022-08-18T01:46:28;26.20;70.90
62575;DHT22;53112;45.602;11.904;2022-08-18T01:48:56;26.20;70.80
62575;DHT22;53112;45.602;11.904;2022-08-18T01:51:29;26.20;71.30
62575;DHT22;53112;45.602;11.904;2022-08-18T01:53:55;26.20;72.30
62575;DHT22;53112;45.602;11.904;2022-08-18T01:56:24;26.10;71.40
62575;DHT22;53112;45.602;11.904;2022-08-18T01:58:53;26.10;72.00
62575;DHT22;53112;45.602;11.904;2022-08-18T02:01:21;26.10;71.40
62575;DHT22;53112;45.602;11.904;2022-08-18T02:03:50;26.20;71.30
62575;DHT22;53112;45.602;11.904;2022-08-18T02:06:17;26.10;71.90
62575;DHT22;53112;45.602;11.904;2022-08-18T02:08:45;26.10;72.20
62575;DHT22;53112;45.602;11.904;2022-08-18T02:11:12;26.20;72.50
62575;DHT22;53112;45.602;11.904;2022-08-18T02:13:38;26.20;72.10
62575;DHT22;53112;45.602;11.904;2022-08-18T02:16:06;26.20;72.10
62575;DHT22;53112;45.602;11.904;2022-08-18T02:18:35;26.10;72.90
62575;DHT22;53112;45.602;11.904;2022-08-18T02:21:09;26.10;72.90
62575;DHT22;53112;45.602;11.904;2022-08-18T02:23:37;26.20;72.80
62575;DHT22;53112;45.602;11.904;2022-08-18T02:26:08;26.20;72.40
62575;DHT22;53112;45.602;11.904;2022-08-18T02:28:34;26.10;73.50
62575;DHT22;53112;45.602;11.904;2022-08-18T02:31:09;26.10;73.00
62575;DHT22;53112;45.602;11.904;2022-08-18T02:33:36;26.10;73.70
62575;DHT22;53112;45.602;11.904;2022-08-18T02:36:03;26.30;73.30
62575;DHT22;53112;45.602;11.904;2022-08-18T02:38:29;26.30;74.00
62575;DHT22;53112;45.602;11.904;2022-08-18T02:41:00;26.40;73.40
62575;DHT22;53112;45.602;11.904;2022-08-18T02:43:28;26.40;73.50
62575;DHT22;53112;45.602;11.904;2022-08-18T02:45:54;26.40;73.50
62575;DHT22;53112;45.602;11.904;2022-08-18T02:48:20;26.50;72.90
62575;DHT22;53112;45.602;11.904;2022-08-18T02:51:06;26.50;73.10
62575;DHT22;53112;45.602;11.904;2022-08-18T02:53:35;26.50;73.40
62575;DHT22;53112;45.602;11.904;2022-08-18T02:56:14;26.50;73.70
62575;DHT22;53112;45.602;11.904;2022-08-18T02:58:48;26.60;73.20
62575;DHT22;53112;45.602;11.904;2022-08-18T03:01:14;26.70;72.70
62575;DHT22;53112;45.602;11.904;2022-08-18T03:03:40;26.80;72.10
62575;DHT22;53112;45.602;11.904;2022-08-18T03:06:06;26.80;73.10
62575;DHT22;53112;45.602;11.904;2022-08-18T03:08:32;26.70;73.10
62575;DHT22;53112;45.602;11.904;2022-08-18T03:10:58;26.80;72.30
62575;DHT22;53112;45.602;11.904;2022-08-18T03:13:24;26.70;72.80
62575;DHT22;53112;45.602;11.904;2022-08-18T03:15:51;26.80;72.10
62575;DHT22;53112;45.602;11.904;2022-08-18T03:18:17;26.80;72.50
62575;DHT22;53112;45.602;11.904;2022-08-18T03:20:43;26.80;72.50
62575;DHT22;53112;45.602;11.904;2022-08-18T03:23:10;26.80;72.50
62575;DHT22;53112;45.602;11.904;2022-08-18T03:25:45;26.90;71.90
62575;DHT22;53112;45.602;11.904;2022-08-18T03:28:12;27.00;71.80
62575;DHT22;53112;45.602;11.904;2022-08-18T03:30:38;27.10;71.40
62575;DHT22;53112;45.602;11.904;2022-08-18T03:33:04;27.00;72.40
62575;DHT22;53112;45.602;11.904;2022-08-18T03:35:30;26.70;73.70
62575;DHT22;53112;45.602;11.904;2022-08-18T03:37:59;26.60;74.10
62575;DHT22;53112;45.602;11.904;2022-08-18T03:40:25;26.80;73.60
62575;DHT22;53112;45.602;11.904;2022-08-18T03:42:51;26.90;72.60
62575;DHT22;53112;45.602;11.904;2022-08-18T03:45:17;27.10;72.00
62575;DHT22;53112;45.602;11.904;2022-08-18T03:47:44;27.10;71.90
62575;DHT22;53112;45.602;11.904;2022-08-18T03:50:11;27.10;71.80
62575;DHT22;53112;45.602;11.904;2022-08-18T03:52:37;27.10;71.70
62575;DHT22;53112;45.602;11.904;2022-08-18T03:55:05;27.10;71.90
62575;DHT22;53112;45.602;11.904;2022-08-18T03:57:31;27.10;72.10
62575;DHT22;53112;45.602;11.904;2022-08-18T03:59:58;27.00;73.00
62575;DHT22;53112;45.602;11.904;2022-08-18T04:02:25;26.60;75.10
62575;DHT22;53112;45.602;11.904;2022-08-18T04:04:53;26.30;76.50
62575;DHT22;53112;45.602;11.904;2022-08-18T04:07:19;25.80;77.90
62575;DHT22;53112;45.602;11.904;2022-08-18T04:09:45;25.60;81.80
62575;DHT22;53112;45.602;11.904;2022-08-18T04:12:13;24.70;85.40
62575;DHT22;53112;45.602;11.904;2022-08-18T04:14:41;24.20;85.50
62575;DHT22;53112;45.602;11.904;2022-08-18T04:17:08;24.20;85.70
62575;DHT22;53112;45.602;11.904;2022-08-18T04:19:35;24.30;84.90
62575;DHT22;53112;45.602;11.904;2022-08-18T04:22:03;24.00;84.70
62575;DHT22;53112;45.602;11.904;2022-08-18T04:24:31;24.10;84.80
62575;DHT22;53112;45.602;11.904;2022-08-18T04:26:59;23.80;84.40
62575;DHT22;53112;45.602;11.904;2022-08-18T04:29:25;23.70;84.70
62575;DHT22;53112;45.602;11.904;2022-08-18T04:31:51;23.60;84.40
62575;DHT22;53112;45.602;11.904;2022-08-18T04:34:21;23.50;84.30
62575;DHT22;53112;45.602;11.904;2022-08-18T04:36:48;23.30;84.10
62575;DHT22;53112;45.602;11.904;2022-08-18T04:39:19;23.00;84.10
62575;DHT22;53112;45.602;11.904;2022-08-18T04:41:47;22.90;84.10
62575;DHT22;53112;45.602;11.904;2022-08-18T04:44:13;22.90;83.80
62575;DHT22;53112;45.602;11.904;2022-08-18T04:46:48;22.80;83.10
62575;DHT22;53112;45.602;11.904;2022-08-18T04:49:20;22.60;83.80
62575;DHT22;53112;45.602;11.904;2022-08-18T04:51:49;22.50;83.40
62575;DHT22;53112;45.602;11.904;2022-08-18T04:54:36;22.50;83.00
62575;DHT22;53112;45.602;11.904;2022-08-18T04:57:21;22.40;82.40
62575;DHT22;53112;45.602;11.904;2022-08-18T04:59:49;22.10;83.10
62575;DHT22;53112;45.602;11.904;2022-08-18T05:02:18;22.20;82.90
62575;DHT22;53112;45.602;11.904;2022-08-18T05:04:45;22.10;83.10
62575;DHT22;53112;45.602;11.904;2022-08-18T05:07:17;22.10;83.50
62575;DHT22;53112;45.602;11.904;2022-08-18T05:09:43;22.20;82.70
62575;DHT22;53112;45.602;11.904;2022-08-18T05:12:11;22.20;83.50
62575;DHT22;53112;45.602;11.904;2022-08-18T05:14:40;22.30;83.40
62575;DHT22;53112;45.602;11.904;2022-08-18T05:17:06;22.40;82.70
62575;DHT22;53112;45.602;11.904;2022-08-18T05:19:32;22.60;82.80
62575;DHT22;53112;45.602;11.904;2022-08-18T05:22:01;22.60;83.00
62575;DHT22;53112;45.602;11.904;2022-08-18T05:24:29;22.60;83.00
62575;DHT22;53112;45.602;11.904;2022-08-18T05:26:55;22.80;83.40
62575;DHT22;53112;45.602;11.904;2022-08-18T05:29:21;22.80;83.20
62575;DHT22;53112;45.602;11.904;2022-08-18T05:31:49;22.90;82.90
62575;DHT22;53112;45.602;11.904;2022-08-18T05:34:17;22.90;83.10
62575;DHT22;53112;45.602;11.904;2022-08-18T05:39:37;23.00;84.00
62575;DHT22;53112;45.602;11.904;2022-08-18T05:42:18;23.20;83.70
62575;DHT22;53112;45.602;11.904;2022-08-18T05:44:50;23.00;82.90
62575;DHT22;53112;45.602;11.904;2022-08-18T05:47:25;23.00;82.80
62575;DHT22;53112;45.602;11.904;2022-08-18T05:49:54;23.10;83.20
62575;DHT22;53112;45.602;11.904;2022-08-18T05:55:13;23.30;83.00
62575;DHT22;53112;45.602;11.904;2022-08-18T05:58:05;22.90;83.00
62575;DHT22;53112;45.602;11.904;2022-08-18T06:00:35;23.20;82.50
62575;DHT22;53112;45.602;11.904;2022-08-18T06:03:16;23.40;83.10
62575;DHT22;53112;45.602;11.904;2022-08-18T06:06:10;23.60;82.50
62575;DHT22;53112;45.602;11.904;2022-08-18T06:08:44;23.80;83.20
62575;DHT22;53112;45.602;11.904;2022-08-18T06:11:11;23.90;82.70
62575;DHT22;53112;45.602;11.904;2022-08-18T06:13:40;23.80;82.00
62575;DHT22;53112;45.602;11.904;2022-08-18T06:24:30;24.20;82.00
62575;DHT22;53112;45.602;11.904;2022-08-18T06:35:50;25.20;80.40
62575;DHT22;53112;45.602;11.904;2022-08-18T06:40:48;25.40;79.50
62575;DHT22;53112;45.602;11.904;2022-08-18T06:43:16;25.60;80.10
62575;DHT22;53112;45.602;11.904;2022-08-18T06:45:45;26.00;79.40
62575;DHT22;53112;45.602;11.904;2022-08-18T06:48:25;25.90;76.90
62575;DHT22;53112;45.602;11.904;2022-08-18T06:50:57;26.00;78.20
62575;DHT22;53112;45.602;11.904;2022-08-18T06:54:04;26.20;78.00
62575;DHT22;53112;45.602;11.904;2022-08-18T06:59:26;26.60;74.70
62575;DHT22;53112;45.602;11.904;2022-08-18T07:02:23;26.70;75.60
62575;DHT22;53112;45.602;11.904;2022-08-18T07:05:00;26.70;72.50
62575;DHT22;53112;45.602;11.904;2022-08-18T07:07:34;26.90;72.80
62575;DHT22;53112;45.602;11.904;2022-08-18T07:10:03;27.20;74.70
62575;DHT22;53112;45.602;11.904;2022-08-18T07:12:29;27.60;73.40
62575;DHT22;53112;45.602;11.904;2022-08-18T07:14:59;28.00;71.20
62575;DHT22;53112;45.602;11.904;2022-08-18T07:17:36;27.70;73.00
62575;DHT22;53112;45.602;11.904;2022-08-18T07:20:16;27.70;72.30
62575;DHT22;53112;45.602;11.904;2022-08-18T07:22:58;28.20;68.40
62575;DHT22;53112;45.602;11.904;2022-08-18T07:25:36;28.60;68.80
62575;DHT22;53112;45.602;11.904;2022-08-18T07:28:04;29.10;65.50
62575;DHT22;53112;45.602;11.904;2022-08-18T07:30:36;29.10;61.80
62575;DHT22;53112;45.602;11.904;2022-08-18T07:33:22;29.00;62.80
62575;DHT22;53112;45.602;11.904;2022-08-18T07:35:54;28.70;62.20
62575;DHT22;53112;45.602;11.904;2022-08-18T07:38:28;28.80;62.00
62575;DHT22;53112;45.602;11.904;2022-08-18T07:41:02;29.10;62.20
62575;DHT22;53112;45.602;11.904;2022-08-18T07:46:22;29.70;60.30
62575;DHT22;53112;45.602;11.904;2022-08-18T07:48:49;29.60;60.60
62575;DHT22;53112;45.602;11.904;2022-08-18T07:54:53;30.10;58.10
62575;DHT22;53112;45.602;11.904;2022-08-18T08:00:28;31.40;54.30
62575;DHT22;53112;45.602;11.904;2022-08-18T08:13:32;31.20;55.10
62575;DHT22;53112;45.602;11.904;2022-08-18T08:21:18;28.40;61.90
62575;DHT22;53112;45.602;11.904;2022-08-18T08:23:53;27.80;63.80
62575;DHT22;53112;45.602;11.904;2022-08-18T08:32:09;26.50;63.80
62575;DHT22;53112;45.602;11.904;2022-08-18T08:34:49;26.50;62.40
62575;DHT22;53112;45.602;11.904;2022-08-18T08:37:26;26.40;62.30
62575;DHT22;53112;45.602;11.904;2022-08-18T08:42:52;26.20;62.60
62575;DHT22;53112;45.602;11.904;2022-08-18T08:45:25;26.00;62.90
62575;DHT22;53112;45.602;11.904;2022-08-18T08:50:32;26.20;62.60
62575;DHT22;53112;45.602;11.904;2022-08-18T08:53:24;26.50;62.30
62575;DHT22;53112;45.602;11.904;2022-08-18T08:55:56;26.60;63.10
62575;DHT22;53112;45.602;11.904;2022-08-18T08:58:32;26.90;62.40
62575;DHT22;53112;45.602;11.904;2022-08-18T09:01:02;27.60;61.30
62575;DHT22;53112;45.602;11.904;2022-08-18T09:03:48;28.40;58.70
62575;DHT22;53112;45.602;11.904;2022-08-18T09:17:54;30.60;51.90
62575;DHT22;53112;45.602;11.904;2022-08-18T09:23:23;30.60;51.00
62575;DHT22;53112;45.602;11.904;2022-08-18T09:25:55;31.10;49.40
62575;DHT22;53112;45.602;11.904;2022-08-18T09:42:12;30.80;50.10
62575;DHT22;53112;45.602;11.904;2022-08-18T09:49:52;30.50;50.30
62575;DHT22;53112;45.602;11.904;2022-08-18T09:54:52;30.90;49.80
62575;DHT22;53112;45.602;11.904;2022-08-18T09:57:36;30.80;49.00
62575;DHT22;53112;45.602;11.904;2022-08-18T10:10:56;29.90;49.10
62575;DHT22;53112;45.602;11.904;2022-08-18T10:13:46;29.60;50.00
62575;DHT22;53112;45.602;11.904;2022-08-18T10:24:53;26.10;79.90
62575;DHT22;53112;45.602;11.904;2022-08-18T10:30:00;25.00;79.40
62575;DHT22;53112;45.602;11.904;2022-08-18T10:32:41;25.00;78.80
62575;DHT22;53112;45.602;11.904;2022-08-18T10:41:29;25.10;80.30
62575;DHT22;53112;45.602;11.904;2022-08-18T10:43:53;24.90;79.40
62575;DHT22;53112;45.602;11.904;2022-08-18T10:46:27;24.90;79.70
62575;DHT22;53112;45.602;11.904;2022-08-18T10:49:21;25.10;79.90
62575;DHT22;53112;45.602;11.904;2022-08-18T10:52:17;25.00;77.80
62575;DHT22;53112;45.602;11.904;2022-08-18T10:55:04;25.00;78.00
62575;DHT22;53112;45.602;11.904;2022-08-18T11:00:05;25.10;77.90
62575;DHT22;53112;45.602;11.904;2022-08-18T11:05:15;24.40;86.30
62575;DHT22;53112;45.602;11.904;2022-08-18T11:07:47;23.60;87.00
62575;DHT22;53112;45.602;11.904;2022-08-18T11:10:17;23.60;87.20
62575;DHT22;53112;45.602;11.904;2022-08-18T11:20:13;23.40;83.50
62575;DHT22;53112;45.602;11.904;2022-08-18T11:22:50;23.30;83.90
62575;DHT22;53112;45.602;11.904;2022-08-18T11:25:34;23.20;83.70
62575;DHT22;53112;45.602;11.904;2022-08-18T11:28:01;23.20;83.90
62575;DHT22;53112;45.602;11.904;2022-08-18T11:30:34;23.20;83.40
62575;DHT22;53112;45.602;11.904;2022-08-18T11:33:03;23.10;83.10
62575;DHT22;53112;45.602;11.904;2022-08-18T11:35:43;23.10;81.80
62575;DHT22;53112;45.602;11.904;2022-08-18T11:38:12;22.90;82.70
62575;DHT22;53112;45.602;11.904;2022-08-18T11:40:50;23.00;81.60
62575;DHT22;53112;45.602;11.904;2022-08-18T11:43:32;23.20;82.30
62575;DHT22;53112;45.602;11.904;2022-08-18T11:46:09;23.10;81.40
62575;DHT22;53112;45.602;11.904;2022-08-18T11:48:45;23.20;81.90
62575;DHT22;53112;45.602;11.904;2022-08-18T11:51:22;23.20;81.20
62575;DHT22;53112;45.602;11.904;2022-08-18T11:53:55;23.10;80.70
62575;DHT22;53112;45.602;11.904;2022-08-18T11:56:35;23.20;82.40
62575;DHT22;53112;45.602;11.904;2022-08-18T12:01:54;23.30;80.10
62575;DHT22;53112;45.602;11.904;2022-08-18T12:04:38;23.00;81.80
62575;DHT22;53112;45.602;11.904;2022-08-18T12:07:15;22.50;82.00
62575;DHT22;53112;45.602;11.904;2022-08-18T12:09:43;22.30;81.00
62575;DHT22;53112;45.602;11.904;2022-08-18T12:12:26;22.40;81.20
62575;DHT22;53112;45.602;11.904;2022-08-18T12:17:30;22.70;80.00
62575;DHT22;53112;45.602;11.904;2022-08-18T12:19:57;23.00;80.00
62575;DHT22;53112;45.602;11.904;2022-08-18T12:22:28;23.30;79.30
62575;DHT22;53112;45.602;11.904;2022-08-18T12:24:57;23.40;78.70
62575;DHT22;53112;45.602;11.904;2022-08-18T12:27:25;23.70;77.30
62575;DHT22;53112;45.602;11.904;2022-08-18T12:29:54;24.10;77.10
62575;DHT22;53112;45.602;11.904;2022-08-18T12:32:24;24.60;77.40
62575;DHT22;53112;45.602;11.904;2022-08-18T12:34:50;25.30;76.60
62575;DHT22;53112;45.602;11.904;2022-08-18T12:37:19;25.30;74.40
62575;DHT22;53112;45.602;11.904;2022-08-18T12:39:46;25.60;75.10
62575;DHT22;53112;45.602;11.904;2022-08-18T12:42:12;25.90;73.60
62575;DHT22;53112;45.602;11.904;2022-08-18T12:44:38;26.40;73.40
62575;DHT22;53112;45.602;11.904;2022-08-18T12:47:20;26.50;69.10
62575;DHT22;53112;45.602;11.904;2022-08-18T12:49:47;26.90;70.10
62575;DHT22;53112;45.602;11.904;2022-08-18T12:52:14;26.80;67.30
62575;DHT22;53112;45.602;11.904;2022-08-18T12:54:41;26.60;69.30
62575;DHT22;53112;45.602;11.904;2022-08-18T12:57:16;27.00;69.70
62575;DHT22;53112;45.602;11.904;2022-08-18T12:59:44;27.90;66.90
62575;DHT22;53112;45.602;11.904;2022-08-18T13:02:11;27.90;63.70
62575;DHT22;53112;45.602;11.904;2022-08-18T13:04:37;28.50;64.80
62575;DHT22;53112;45.602;11.904;2022-08-18T13:07:04;29.20;59.40
62575;DHT22;53112;45.602;11.904;2022-08-18T13:09:35;30.10;59.40
62575;DHT22;53112;45.602;11.904;2022-08-18T13:12:01;30.60;56.90
62575;DHT22;53112;45.602;11.904;2022-08-18T13:14:27;31.20;55.40
62575;DHT22;53112;45.602;11.904;2022-08-18T13:16:53;31.70;52.90
62575;DHT22;53112;45.602;11.904;2022-08-18T13:19:20;32.10;52.30
62575;DHT22;53112;45.602;11.904;2022-08-18T13:21:46;32.30;48.80
62575;DHT22;53112;45.602;11.904;2022-08-18T13:24:12;32.80;50.40
62575;DHT22;53112;45.602;11.904;2022-08-18T13:26:41;33.10;49.70
62575;DHT22;53112;45.602;11.904;2022-08-18T13:29:08;32.80;47.60
62575;DHT22;53112;45.602;11.904;2022-08-18T13:31:35;32.20;49.40
62575;DHT22;53112;45.602;11.904;2022-08-18T13:34:04;32.40;50.10
62575;DHT22;53112;45.602;11.904;2022-08-18T13:36:32;32.30;50.10
62575;DHT22;53112;45.602;11.904;2022-08-18T13:39:21;32.00;51.00
62575;DHT22;53112;45.602;11.904;2022-08-18T13:41:49;32.30;48.60
62575;DHT22;53112;45.602;11.904;2022-08-18T13:44:18;32.30;48.00
62575;DHT22;53112;45.602;11.904;2022-08-18T13:46:47;32.60;48.70
62575;DHT22;53112;45.602;11.904;2022-08-18T13:49:18;32.50;47.70
62575;DHT22;53112;45.602;11.904;2022-08-18T13:51:45;31.70;49.60
62575;DHT22;53112;45.602;11.904;2022-08-18T13:54:35;31.60;49.70
62575;DHT22;53112;45.602;11.904;2022-08-18T13:57:02;31.50;49.80
62575;DHT22;53112;45.602;11.904;2022-08-18T13:59:28;32.00;48.70
62575;DHT22;53112;45.602;11.904;2022-08-18T14:02:02;32.20;47.90
62575;DHT22;53112;45.602;11.904;2022-08-18T14:04:30;32.50;47.40
62575;DHT22;53112;45.602;11.904;2022-08-18T14:06:56;32.20;47.60
62575;DHT22;53112;45.602;11.904;2022-08-18T14:09:22;32.00;48.60
62575;DHT22;53112;45.602;11.904;2022-08-18T14:11:49;31.10;49.00
62575;DHT22;53112;45.602;11.904;2022-08-18T14:14:16;30.80;51.00
62575;DHT22;53112;45.602;11.904;2022-08-18T14:16:42;29.90;51.70
62575;DHT22;53112;45.602;11.904;2022-08-18T14:19:08;30.00;51.30
62575;DHT22;53112;45.602;11.904;2022-08-18T14:21:53;29.70;51.30
62575;DHT22;53112;45.602;11.904;2022-08-18T14:24:39;29.50;52.30
62575;DHT22;53112;45.602;11.904;2022-08-18T14:27:33;30.20;49.30
62575;DHT22;53112;45.602;11.904;2022-08-18T14:30:00;30.70;48.90
62575;DHT22;53112;45.602;11.904;2022-08-18T14:32:26;31.20;49.10
62575;DHT22;53112;45.602;11.904;2022-08-18T14:34:59;32.00;46.90
62575;DHT22;53112;45.602;11.904;2022-08-18T14:37:26;32.50;46.70
62575;DHT22;53112;45.602;11.904;2022-08-18T14:39:52;32.70;46.40
62575;DHT22;53112;45.602;11.904;2022-08-18T14:42:19;32.70;45.30
62575;DHT22;53112;45.602;11.904;2022-08-18T14:44:47;32.50;47.70
62575;DHT22;53112;45.602;11.904;2022-08-18T14:47:13;32.90;46.20
62575;DHT22;53112;45.602;11.904;2022-08-18T14:49:40;33.10;45.50
62575;DHT22;53112;45.602;11.904;2022-08-18T14:52:09;32.60;45.10
62575;DHT22;53112;45.602;11.904;2022-08-18T14:54:38;32.40;46.00
62575;DHT22;53112;45.602;11.904;2022-08-18T14:57:04;31.60;48.20
62575;DHT22;53112;45.602;11.904;2022-08-18T14:59:31;31.10;48.70
62575;DHT22;53112;45.602;11.904;2022-08-18T15:01:58;31.10;48.20
62575;DHT22;53112;45.602;11.904;2022-08-18T15:04:25;31.70;46.90
62575;DHT22;53112;45.602;11.904;2022-08-18T15:06:54;32.20;45.90
62575;DHT22;53112;45.602;11.904;2022-08-18T15:09:20;32.30;45.90
62575;DHT22;53112;45.602;11.904;2022-08-18T15:11:47;32.70;44.80
62575;DHT22;53112;45.602;11.904;2022-08-18T15:14:16;32.80;44.40
62575;DHT22;53112;45.602;11.904;2022-08-18T15:16:43;32.70;45.20
62575;DHT22;53112;45.602;11.904;2022-08-18T15:19:09;32.30;46.00
62575;DHT22;53112;45.602;11.904;2022-08-18T15:21:35;32.10;46.00
62575;DHT22;53112;45.602;11.904;2022-08-18T15:24:19;31.80;46.10
62575;DHT22;53112;45.602;11.904;2022-08-18T15:27:04;31.10;47.30
62575;DHT22;53112;45.602;11.904;2022-08-18T15:29:31;31.10;48.70
62575;DHT22;53112;45.602;11.904;2022-08-18T15:31:58;31.10;47.60
62575;DHT22;53112;45.602;11.904;2022-08-18T15:34:24;31.40;47.40
62575;DHT22;53112;45.602;11.904;2022-08-18T15:36:50;32.10;46.10
62575;DHT22;53112;45.602;11.904;2022-08-18T15:39:17;32.70;45.00
62575;DHT22;53112;45.602;11.904;2022-08-18T15:41:45;33.10;43.70
62575;DHT22;53112;45.602;11.904;2022-08-18T15:44:15;33.60;42.40
62575;DHT22;53112;45.602;11.904;2022-08-18T15:46:42;34.10;42.00
62575;DHT22;53112;45.602;11.904;2022-08-18T15:49:09;34.40;40.70
62575;DHT22;53112;45.602;11.904;2022-08-18T15:51:37;34.50;40.70
62575;DHT22;53112;45.602;11.904;2022-08-18T15:54:05;34.50;40.60
62575;DHT22;53112;45.602;11.904;2022-08-18T15:56:32;34.70;40.00
62575;DHT22;53112;45.602;11.904;2022-08-18T15:58:58;35.00;39.00
62575;DHT22;53112;45.602;11.904;2022-08-18T16:01:29;35.00;40.00
62575;DHT22;53112;45.602;11.904;2022-08-18T16:03:55;34.50;40.10
62575;DHT22;53112;45.602;11.904;2022-08-18T16:06:23;33.70;41.10
62575;DHT22;53112;45.602;11.904;2022-08-18T16:08:51;33.70;42.40
62575;DHT22;53112;45.602;11.904;2022-08-18T16:11:19;33.50;43.20
62575;DHT22;53112;45.602;11.904;2022-08-18T16:13:47;33.60;42.90
62575;DHT22;53112;45.602;11.904;2022-08-18T16:16:23;33.10;42.80
62575;DHT22;53112;45.602;11.904;2022-08-18T16:18:50;33.10;42.90
62575;DHT22;53112;45.602;11.904;2022-08-18T16:21:20;32.70;43.80
62575;DHT22;53112;45.602;11.904;2022-08-18T16:23:49;32.70;44.10
62575;DHT22;53112;45.602;11.904;2022-08-18T16:26:17;32.70;44.00
62575;DHT22;53112;45.602;11.904;2022-08-18T16:28:47;32.60;44.20
62575;DHT22;53112;45.602;11.904;2022-08-18T16:31:18;32.40;43.90
62575;DHT22;53112;45.602;11.904;2022-08-18T16:33:53;32.30;44.20
62575;DHT22;53112;45.602;11.904;2022-08-18T16:36:21;32.40;44.80
62575;DHT22;53112;45.602;11.904;2022-08-18T16:38:51;32.70;44.00
62575;DHT22;53112;45.602;11.904;2022-08-18T16:41:17;32.40;43.10
62575;DHT22;53112;45.602;11.904;2022-08-18T16:43:45;32.50;44.40
62575;DHT22;53112;45.602;11.904;2022-08-18T16:46:19;32.70;44.20
62575;DHT22;53112;45.602;11.904;2022-08-18T16:48:48;32.80;43.70
62575;DHT22;53112;45.602;11.904;2022-08-18T16:51:17;32.90;44.00
62575;DHT22;53112;45.602;11.904;2022-08-18T16:53:44;33.20;43.00
62575;DHT22;53112;45.602;11.904;2022-08-18T16:56:16;33.10;43.40
62575;DHT22;53112;45.602;11.904;2022-08-18T16:58:43;33.40;43.10
62575;DHT22;53112;45.602;11.904;2022-08-18T17:01:27;33.90;42.10
62575;DHT22;53112;45.602;11.904;2022-08-18T17:04:14;35.00;40.30
62575;DHT22;53112;45.602;11.904;2022-08-18T17:06:42;35.80;38.50
62575;DHT22;53112;45.602;11.904;2022-08-18T17:09:08;35.90;37.90
62575;DHT22;53112;45.602;11.904;2022-08-18T17:11:37;35.50;38.30
62575;DHT22;53112;45.602;11.904;2022-08-18T17:14:05;35.70;38.10
62575;DHT22;53112;45.602;11.904;2022-08-18T17:16:34;34.20;40.50
62575;DHT22;53112;45.602;11.904;2022-08-18T17:19:00;33.60;42.50
62575;DHT22;53112;45.602;11.904;2022-08-18T17:21:29;33.40;43.30
62575;DHT22;53112;45.602;11.904;2022-08-18T17:23:57;33.00;43.40
62575;DHT22;53112;45.602;11.904;2022-08-18T17:29:01;32.20;45.30
62575;DHT22;53112;45.602;11.904;2022-08-18T17:31:29;31.90;46.50
62575;DHT22;53112;45.602;11.904;2022-08-18T17:34:06;31.80;46.60
62575;DHT22;53112;45.602;11.904;2022-08-18T17:36:42;31.60;47.00
62575;DHT22;53112;45.602;11.904;2022-08-18T17:39:12;31.30;47.50
62575;DHT22;53112;45.602;11.904;2022-08-18T17:41:40;31.10;48.00
62575;DHT22;53112;45.602;11.904;2022-08-18T17:44:25;30.70;49.30
62575;DHT22;53112;45.602;11.904;2022-08-18T17:46:53;30.60;49.50
62575;DHT22;53112;45.602;11.904;2022-08-18T17:53:44;29.70;52.60
62575;DHT22;53112;45.602;11.904;2022-08-18T17:56:23;30.00;52.80
62575;DHT22;53112;45.602;11.904;2022-08-18T18:01:22;29.50;53.50
62575;DHT22;53112;45.602;11.904;2022-08-18T18:03:48;29.40;53.70
62575;DHT22;53112;45.602;11.904;2022-08-18T18:06:38;29.10;55.00
62575;DHT22;53112;45.602;11.904;2022-08-18T18:11:46;28.80;56.90
62575;DHT22;53112;45.602;11.904;2022-08-18T18:14:34;29.10;55.70
62575;DHT22;53112;45.602;11.904;2022-08-18T18:17:16;29.20;55.40